Aeroporto :
LOGIN :

Iscrizione | Disclaimer

   EN    FR    IT 

 










Sommario :    VFR   VFR Marginale   IFR   IFR Intensivo   IFR Molto Intensivo
Visibilità : 
Base nubi : 
>= 8 km
>= 3000ft
5 / 8 km
1000 / 3000 ft
1500m / 5 km
500 / 1000 ft
800 / 1500m
200 / 500 ft
< 800m
< 200 ft
Simboli :   Temporali  Nebbia  Neve Forte  Precipitazioni Forti  Vento > 20 kt
SIGMETs :   Varie  Temporali  Ghiacco  Turbolenza  Onda orograficha  Ceneri Vulcaniche






- Altitudine del aeroporto : 38 ft
- Codice IATA : TRE


EGPU - Tiree

ULTIMO METAR :
  • 070950Z AUTO 02019KT 350V050 9999 FEW018/// BKN021/// 11/08 Q1013

METARs OBSOLETI :
  • 070920Z AUTO 01019KT 340V040 9999 SCT025/// 11/07 Q1012
  • 070850Z AUTO 01018KT 9999 FEW018/// 11/07 Q1012
  • 070820Z AUTO 02017KT 9999 BKN015/// 11/08 Q1012
  • 070750Z AUTO 01022KT 340V110 9999 SCT015/// 11/08 Q1012
  • 070720Z AUTO VRB21KT 9999 BKN014/// 11/08 Q1011

TAF TAF EGPU
Valido dal 07 a 09 ore il 07 a 18 ore UTC


070804Z 0709/0718 36018KT 9999 BKN014
BECMG 0709/0711 SCT025



MetMap, La meteo Aeronautica in un colpo d'occhio ! - Copyright ORBIFLY Dicembre 2007 - Disclaimer

ORBIFLY MET'MAP TEAM :

Programmazione e sviluppo : Alexandra Zaïnal
Concezione : Baudouin d'Aumeries
Aiuto per la programmazione : Marc-Olivier Méhu
Supporto tecnico e logistico : Manuel Goepfert
Aiuto per la traduzione : Arnaldo La Scala

Contatto : metmap@orbifly.com




FONTI E CREDITI :

   NOAA